METAR Data
IDs: Format: Raw Decoded Include TAF

Data at: 0705 UTC 16 Dec 2018

KPAE 160653Z AUTO 11009G16KT 10SM -RA OVC035 08/02 A2986 RMK AO2 RAB08 SLP113 P0001 T00780022

KPAE 160524Z 1606/1706 12012KT P6SM -RA OVC080
  FM161800 15014G22KT P6SM -RA SCT035 OVC060
  FM162100 16014G21KT P6SM -RA SCT035 OVC060
  FM170200 17016G23KT P6SM -RA OVC050


KAWO 160656Z AUTO 13010KT 10SM BKN060 09/00 A2986 RMK AO2 SLP117 T00940000
No TAF found for KAWO

KBFI 160653Z 10005KT 9SM -RA OVC045 08/03 A2986 RMK AO2 RAB02 SLP111 P0003 T00830028

KBFI 160524Z 1606/1706 11008KT P6SM -RA OVC080
  FM161200 14008KT P6SM -RA OVC045
  FM170000 15008KT P6SM -RA BKN025 OVC050
  FM170400 16011G18KT P6SM -RA BKN025 OVC050


KRNT 160653Z AUTO 10009G17KT 10SM -RA OVC048 08/03 A2985 RMK AO2 RAB09 SLP113 P0000 T00830028
No TAF found for KRNT

KSEA 160653Z 10010KT 7SM -RA OVC044 08/03 A2984 RMK AO2 RAB10 SLP113 P0002 T00780028

KSEA 160524Z 1606/1712 10010KT P6SM -RA OVC080
  FM161200 12009KT P6SM -RA OVC040
  FM170000 16008KT P6SM -RA BKN025 OVC050
  FM170200 17011KT P6SM -RA OVC050